Terminal Aerodrome Forecast
Issued by NWS

Home | Current Version | Previous Version | Text Only | Print | Product List | Glossary On
Versions: 1 2 3 4 5 6 7 8 9 10 11 12 13 14 15 16 17 18 19 20 21 22 23
000
FTUS44 KEWX 200500
TAFSSF
TAF
KSSF 200521Z 2006/2106 14013KT P6SM FEW070 BKN150 OVC250
     FM200800 14007KT P6SM BKN012
     FM201500 16011KT P6SM BKN020
     FM201700 16011G21KT P6SM SCT040
     FM202200 13015KT P6SM SCT070=

USA.gov is the U.S. government's official web portal to all federal, state and local government web resources and services.